Terminal Aerodrome Forecast
Issued by NWS

Current Version | Previous Version | Graphics & Text | Print | Product List | Glossary On
Versions: 1 2 3 4 5 6 7 8 9 10 11 12 13 14 15 16 17 18 19 20
531
FTUS41 KILN 230858 AAA
TAFLUK
TAF AMD
KLUK 230858Z 2309/2406 00000KT 1 1/2SM BR FEW040 SCT250
      TEMPO 2309/2311 1/2SM FG
     FM231300 25005KT P6SM FEW050 SCT250
     FM240100 00000KT P6SM SCT250=

USA.gov is the U.S. government's official web portal to all federal, state and local government web resources and services.